createdAt,value
2018-06-15T00:02:12.684Z,4.87
2018-06-15T00:04:40.282Z,4.90
2018-06-15T00:07:07.866Z,5.60
2018-06-15T00:09:35.533Z,5.67
2018-06-15T00:12:03.128Z,4.70
2018-06-15T00:14:30.712Z,4.53
2018-06-15T00:16:58.370Z,4.53
2018-06-15T00:19:25.974Z,5.10
2018-06-15T00:21:53.555Z,5.63
2018-06-15T00:24:21.116Z,5.50
2018-06-15T00:26:48.757Z,5.50
2018-06-15T00:29:16.397Z,4.90
2018-06-15T00:31:44.175Z,5.10
2018-06-15T00:34:11.734Z,5.40
2018-06-15T00:36:39.303Z,5.53
2018-06-15T00:39:07.764Z,6.03
2018-06-15T00:41:35.335Z,4.77
2018-06-15T00:44:02.900Z,5.70
2018-06-15T00:46:30.489Z,5.43
2018-06-15T00:48:58.078Z,5.40
2018-06-15T00:51:25.625Z,5.57
2018-06-15T00:53:53.191Z,5.10
2018-06-15T00:56:20.755Z,5.63
2018-06-15T00:58:48.317Z,5.13
2018-06-15T01:01:15.904Z,5.23
2018-06-15T01:03:43.454Z,5.50
2018-06-15T01:06:11.049Z,5.07
2018-06-15T01:08:38.620Z,4.63
2018-06-15T01:11:06.529Z,5.33
2018-06-15T01:13:34.091Z,5.17
2018-06-15T01:16:01.662Z,5.43
2018-06-15T01:18:29.248Z,5.27
2018-06-15T01:20:56.816Z,5.40
2018-06-15T01:23:24.370Z,5.10
2018-06-15T01:25:51.928Z,5.27
2018-06-15T01:28:19.488Z,5.70
2018-06-15T01:30:47.094Z,5.40
2018-06-15T01:33:14.689Z,5.37
2018-06-15T01:35:42.292Z,5.33
2018-06-15T01:38:09.857Z,4.10
2018-06-15T01:40:37.433Z,5.90
2018-06-15T01:43:05.007Z,4.90
2018-06-15T01:45:32.568Z,5.90
2018-06-15T01:48:00.129Z,4.77
2018-06-15T01:50:27.684Z,5.10
2018-06-15T01:52:55.249Z,6.20
2018-06-15T01:55:22.801Z,4.70
2018-06-15T01:57:50.420Z,5.07
2018-06-15T02:00:17.979Z,5.37
2018-06-15T02:02:45.574Z,5.30
2018-06-15T02:05:13.141Z,6.20
2018-06-15T02:07:40.763Z,5.40
2018-06-15T02:10:08.324Z,5.10
2018-06-15T02:12:35.940Z,5.27
2018-06-15T02:15:03.617Z,4.87
2018-06-15T02:17:31.151Z,5.00
2018-06-15T02:19:58.712Z,5.03
2018-06-15T02:22:26.264Z,4.90
2018-06-15T02:24:53.849Z,5.10
2018-06-15T02:27:21.400Z,5.50
2018-06-15T02:29:48.953Z,5.30
2018-06-15T02:32:16.515Z,5.60
2018-06-15T02:34:44.068Z,4.80
2018-06-15T02:37:11.602Z,4.57
2018-06-15T02:39:39.184Z,4.80
2018-06-15T02:42:06.784Z,5.30
2018-06-15T02:44:34.352Z,4.67
2018-06-15T02:47:01.917Z,6.33
2018-06-15T02:49:29.472Z,4.60
2018-06-15T02:51:57.117Z,4.60
2018-06-15T02:54:24.718Z,4.27
2018-06-15T02:56:52.434Z,5.47
2018-06-15T02:59:20.039Z,4.80
2018-06-15T03:01:47.597Z,4.83
2018-06-15T03:04:15.158Z,4.70
2018-06-15T03:06:42.720Z,4.30
2018-06-15T03:09:10.276Z,4.83
2018-06-15T03:11:37.828Z,5.30
2018-06-15T03:14:05.445Z,5.00
2018-06-15T03:16:33.044Z,4.90
2018-06-15T03:19:00.608Z,5.07
2018-06-15T03:21:28.180Z,5.13
2018-06-15T03:23:55.744Z,4.60
2018-06-15T03:26:23.293Z,4.70
2018-06-15T03:28:50.832Z,5.00
2018-06-15T03:31:18.397Z,5.53
2018-06-15T03:33:45.956Z,5.27
2018-06-15T03:36:13.516Z,5.30
2018-06-15T03:38:41.084Z,4.90
2018-06-15T03:41:08.635Z,5.57
2018-06-15T03:43:36.197Z,4.90
2018-06-15T03:46:03.802Z,4.47
2018-06-15T03:48:31.550Z,4.90
2018-06-15T03:50:59.112Z,5.03
2018-06-15T03:53:26.738Z,5.53
2018-06-15T03:55:54.295Z,5.23
2018-06-15T03:58:21.844Z,5.23
2018-06-15T04:00:49.423Z,5.30
2018-06-15T04:03:16.975Z,5.13
2018-06-15T04:05:44.569Z,4.90
2018-06-15T04:08:12.143Z,4.53
2018-06-15T04:10:39.740Z,5.03
2018-06-15T04:13:07.419Z,4.90
2018-06-15T04:15:34.985Z,5.03
2018-06-15T04:18:06.673Z,5.27
2018-06-15T04:20:35.068Z,4.97
2018-06-15T04:23:02.828Z,5.10
2018-06-15T04:25:30.681Z,5.00
2018-06-15T04:27:58.245Z,5.23
2018-06-15T04:30:26.201Z,5.20
2018-06-15T04:32:53.759Z,5.47
2018-06-15T04:35:21.336Z,5.03
2018-06-15T04:37:48.895Z,4.50
2018-06-15T04:40:16.439Z,4.20
2018-06-15T04:42:44.401Z,5.00
2018-06-15T04:45:11.995Z,4.40
2018-06-15T04:47:39.676Z,5.10
2018-06-15T04:50:07.952Z,5.20
2018-06-15T04:52:35.544Z,4.73
2018-06-15T04:55:03.149Z,4.53
2018-06-15T04:57:30.923Z,4.60
2018-06-15T04:59:58.988Z,4.87
2018-06-15T05:02:26.645Z,4.30
2018-06-15T05:04:54.241Z,5.10
2018-06-15T05:07:21.843Z,4.47
2018-06-15T05:09:49.454Z,4.50
2018-06-15T05:12:17.319Z,4.10
2018-06-15T05:14:44.929Z,3.97
2018-06-15T05:17:12.595Z,4.67
2018-06-15T05:19:40.198Z,4.73
2018-06-15T05:22:07.808Z,4.40
2018-06-15T05:24:35.415Z,4.07
2018-06-15T05:27:03.020Z,4.90
2018-06-15T05:29:30.625Z,4.90
2018-06-15T05:31:58.500Z,3.90
2018-06-15T05:34:26.089Z,4.10
2018-06-15T05:36:53.754Z,5.00
2018-06-15T05:39:21.353Z,4.43
2018-06-15T05:41:48.973Z,4.63
2018-06-15T05:44:16.629Z,4.23
2018-06-15T05:46:44.266Z,4.70
2018-06-15T05:49:11.856Z,4.63
2018-06-15T05:51:39.441Z,5.00
2018-06-15T05:54:07.062Z,4.80
2018-06-15T05:56:34.724Z,5.10
2018-06-15T05:59:02.299Z,4.70
2018-06-15T06:01:29.901Z,4.70
2018-06-15T06:03:57.511Z,4.80
2018-06-15T06:06:25.126Z,4.50
2018-06-15T06:08:52.716Z,4.20
2018-06-15T06:11:20.391Z,4.70
2018-06-15T06:13:47.965Z,4.07
2018-06-15T06:16:15.548Z,5.40
2018-06-15T06:18:43.120Z,5.17
2018-06-15T06:21:10.692Z,5.07
2018-06-15T06:23:38.283Z,5.30
2018-06-15T06:26:05.947Z,4.60
2018-06-15T06:28:33.561Z,5.13
2018-06-15T06:31:01.223Z,4.90
2018-06-15T06:33:28.850Z,5.43
2018-06-15T06:35:56.458Z,5.07
2018-06-15T06:38:24.057Z,5.30
2018-06-15T06:40:51.639Z,5.13
2018-06-15T06:43:19.216Z,5.10
2018-06-15T06:45:47.084Z,5.40
2018-06-15T06:48:14.709Z,4.70
2018-06-15T06:50:42.310Z,4.80
2018-06-15T06:53:09.897Z,4.80
2018-06-15T06:55:37.463Z,4.87
2018-06-15T06:58:05.056Z,5.20
2018-06-15T07:00:32.614Z,4.60
2018-06-15T07:03:00.182Z,4.80
2018-06-15T07:05:27.768Z,4.70
2018-06-15T07:07:55.344Z,4.93
2018-06-15T07:10:22.899Z,4.40
2018-06-15T07:12:50.493Z,5.40
2018-06-15T07:15:18.065Z,5.20
2018-06-15T07:17:45.646Z,4.40
2018-06-15T07:20:13.233Z,5.27
2018-06-15T07:22:40.814Z,5.60
2018-06-15T07:25:08.373Z,5.70
2018-06-15T07:27:35.952Z,5.23
2018-06-15T07:30:03.637Z,5.30
2018-06-15T07:32:31.212Z,5.00
2018-06-15T07:34:58.797Z,4.03
2018-06-15T07:37:26.352Z,4.53
2018-06-15T07:39:54.316Z,5.00
2018-06-15T07:42:21.878Z,5.27
2018-06-15T07:44:49.420Z,4.67
2018-06-15T07:47:17.010Z,4.47
2018-06-15T07:49:44.596Z,4.40
2018-06-15T07:52:12.200Z,4.60
2018-06-15T07:54:39.772Z,5.23
2018-06-15T07:57:07.351Z,5.40
2018-06-15T07:59:35.066Z,4.70
2018-06-15T08:02:02.713Z,5.60
2018-06-15T08:04:30.290Z,5.20
2018-06-15T08:06:57.862Z,4.70
2018-06-15T08:09:25.415Z,4.80
2018-06-15T08:11:52.967Z,4.83
2018-06-15T08:14:20.541Z,4.57
2018-06-15T08:16:48.095Z,4.77
2018-06-15T08:19:15.659Z,5.00
2018-06-15T08:21:43.244Z,4.43
2018-06-15T08:24:10.857Z,4.40
2018-06-15T08:26:38.440Z,4.57
2018-06-15T08:29:06.023Z,4.50
2018-06-15T08:31:33.661Z,5.10
2018-06-15T08:34:01.264Z,4.70
2018-06-15T08:36:28.824Z,4.60
2018-06-15T08:38:56.739Z,4.27
2018-06-15T08:41:24.271Z,4.17
2018-06-15T08:43:51.899Z,4.70
2018-06-15T08:46:19.496Z,4.30
2018-06-15T08:48:47.082Z,4.40
2018-06-15T08:51:14.661Z,5.03
2018-06-15T08:53:42.227Z,5.00
2018-06-15T08:56:09.800Z,4.53
2018-06-15T08:58:37.441Z,4.40
2018-06-15T09:01:05.007Z,4.67
2018-06-15T09:03:32.549Z,4.57
2018-06-15T09:06:00.101Z,4.63
2018-06-15T09:08:27.753Z,4.80
2018-06-15T09:10:55.339Z,5.07
2018-06-15T09:13:22.928Z,5.07
2018-06-15T09:15:50.533Z,4.80
2018-06-15T09:18:18.076Z,4.37
2018-06-15T09:20:45.640Z,4.53
2018-06-15T09:23:13.220Z,4.60
2018-06-15T09:25:40.776Z,4.63
2018-06-15T09:28:08.364Z,4.93
2018-06-15T09:30:35.976Z,5.00
2018-06-15T09:33:03.569Z,4.27
2018-06-15T09:35:31.176Z,4.70
2018-06-15T09:37:58.726Z,4.63
2018-06-15T09:40:26.303Z,4.60
2018-06-15T09:42:53.853Z,4.90
2018-06-15T09:45:21.403Z,4.53
2018-06-15T09:47:49.014Z,4.00
2018-06-15T09:50:16.595Z,4.50
2018-06-15T09:52:44.170Z,4.10
2018-06-15T09:55:11.733Z,4.47
2018-06-15T09:57:39.288Z,4.50
2018-06-15T10:00:06.897Z,4.93
2018-06-15T10:02:34.477Z,4.57
2018-06-15T10:05:02.117Z,4.67
2018-06-15T10:07:29.676Z,4.60
2018-06-15T10:09:57.235Z,4.07
2018-06-15T10:12:24.800Z,4.63
2018-06-15T10:14:52.396Z,4.80
2018-06-15T10:17:19.949Z,4.43
2018-06-15T10:19:47.546Z,4.43
2018-06-15T10:22:15.149Z,8.40
2018-06-15T10:24:42.750Z,5.13
2018-06-15T10:27:10.318Z,4.60
2018-06-15T10:29:37.930Z,4.20
2018-06-15T10:32:05.691Z,5.00
2018-06-15T10:34:33.269Z,4.53
2018-06-15T10:37:00.853Z,4.33
2018-06-15T10:39:28.507Z,4.70
2018-06-15T10:41:56.090Z,4.40
2018-06-15T10:44:23.782Z,4.20
2018-06-15T10:46:51.391Z,4.60
2018-06-15T10:49:19.349Z,4.70
2018-06-15T10:51:46.922Z,4.40
2018-06-15T10:54:14.470Z,4.40
2018-06-15T10:56:42.027Z,4.20
2018-06-15T10:59:09.676Z,4.10
2018-06-15T11:01:37.232Z,4.17
2018-06-15T11:04:04.780Z,3.80
2018-06-15T11:06:32.359Z,3.93
2018-06-15T11:08:59.997Z,4.20
2018-06-15T11:11:27.568Z,3.90
2018-06-15T11:13:55.119Z,3.63
2018-06-15T11:16:22.705Z,4.13
2018-06-15T11:18:50.272Z,3.90
2018-06-15T11:21:17.842Z,4.23
2018-06-15T11:23:45.426Z,4.00
2018-06-15T11:26:13.004Z,4.37
2018-06-15T11:28:40.568Z,4.23
2018-06-15T11:31:08.203Z,5.30
2018-06-15T11:33:35.749Z,4.57
2018-06-15T11:36:03.330Z,4.37
2018-06-15T11:38:30.881Z,4.27
2018-06-15T11:40:58.465Z,4.30
2018-06-15T11:43:26.002Z,4.40
2018-06-15T11:45:53.542Z,3.77
2018-06-15T11:48:21.109Z,4.17
2018-06-15T11:50:48.667Z,4.33
2018-06-15T11:53:16.210Z,4.87
2018-06-15T11:55:43.773Z,4.20
2018-06-15T11:58:11.340Z,4.70
2018-06-15T12:00:38.987Z,3.60
2018-06-15T12:03:06.593Z,4.63
2018-06-15T12:05:34.154Z,4.13
2018-06-15T12:08:01.711Z,4.43
2018-06-15T12:10:29.279Z,4.33
2018-06-15T12:12:56.833Z,4.53
2018-06-15T12:15:24.422Z,4.37
2018-06-15T12:17:52.035Z,3.80
2018-06-15T12:20:19.596Z,4.23
2018-06-15T12:22:47.155Z,5.07
2018-06-15T12:25:14.750Z,4.40
2018-06-15T12:27:42.317Z,3.60
2018-06-15T12:30:09.874Z,4.20
2018-06-15T12:32:37.433Z,4.77
2018-06-15T12:35:05.030Z,4.47
2018-06-15T12:37:32.653Z,4.30
2018-06-15T12:40:00.226Z,4.43
2018-06-15T12:42:27.783Z,4.77
2018-06-15T12:44:55.338Z,4.50
2018-06-15T12:47:22.933Z,4.87
2018-06-15T12:49:50.546Z,3.90
2018-06-15T12:52:18.125Z,4.93
2018-06-15T12:54:45.672Z,4.23
2018-06-15T12:57:13.276Z,3.90
2018-06-15T12:59:40.936Z,4.60
2018-06-15T13:02:08.853Z,4.63
2018-06-15T13:04:36.462Z,4.43
2018-06-15T13:07:04.016Z,4.67
2018-06-15T13:09:31.600Z,4.47
2018-06-15T13:11:59.165Z,3.60
2018-06-15T13:14:26.730Z,4.50
2018-06-15T13:16:54.310Z,4.17
2018-06-15T13:19:21.884Z,4.73
2018-06-15T13:21:49.485Z,4.30
2018-06-15T13:24:17.036Z,4.07
2018-06-15T13:26:44.569Z,3.90
2018-06-15T13:29:12.133Z,4.53
2018-06-15T13:31:39.723Z,4.53
2018-06-15T13:34:07.311Z,4.40
2018-06-15T13:36:34.876Z,4.63
2018-06-15T13:39:02.514Z,4.37
2018-06-15T13:41:30.093Z,4.33
2018-06-15T13:43:57.690Z,4.63
2018-06-15T13:46:25.326Z,4.60
2018-06-15T13:48:52.873Z,4.30
2018-06-15T13:51:20.468Z,4.50
2018-06-15T13:53:48.027Z,4.60
2018-06-15T13:56:15.661Z,5.03
2018-06-15T13:58:43.239Z,4.20
2018-06-15T14:01:10.807Z,4.40
2018-06-15T14:03:38.420Z,4.80
2018-06-15T14:06:05.983Z,3.70
2018-06-15T14:08:33.568Z,4.80
2018-06-15T14:11:01.151Z,4.70
2018-06-15T14:13:28.707Z,4.50
2018-06-15T14:15:56.262Z,4.40
2018-06-15T14:18:23.808Z,4.80
2018-06-15T14:20:51.397Z,5.30
2018-06-15T14:23:18.986Z,5.93
2018-06-15T14:25:46.561Z,4.70
2018-06-15T14:28:14.137Z,5.07
2018-06-15T14:30:41.713Z,4.97
2018-06-15T14:33:09.339Z,5.07
2018-06-15T14:35:36.936Z,5.03
2018-06-15T14:38:04.589Z,5.50
2018-06-15T14:40:32.183Z,5.20
2018-06-15T14:42:59.777Z,4.80
2018-06-15T14:45:27.364Z,5.00
2018-06-15T14:47:54.919Z,5.07
2018-06-15T14:50:22.511Z,4.90
2018-06-15T14:52:50.137Z,5.67
2018-06-15T14:55:17.707Z,4.40
2018-06-15T14:57:45.280Z,4.90
2018-06-15T15:00:12.924Z,5.17
2018-06-15T15:02:40.519Z,4.63
2018-06-15T15:05:08.134Z,4.90
2018-06-15T15:07:35.692Z,4.80
2018-06-15T15:10:03.282Z,4.50
2018-06-15T15:12:30.843Z,4.50
2018-06-15T15:14:58.414Z,4.47
2018-06-15T15:17:25.992Z,4.70
2018-06-15T15:19:53.558Z,4.73
2018-06-15T15:22:21.160Z,4.20
2018-06-15T15:24:48.746Z,5.00
2018-06-15T15:27:16.340Z,4.27
2018-06-15T15:29:43.966Z,4.80
2018-06-15T15:32:11.577Z,4.20
2018-06-15T15:34:39.148Z,4.00
2018-06-15T15:37:06.723Z,4.20
2018-06-15T15:39:34.295Z,4.70
2018-06-15T15:42:01.892Z,4.60
2018-06-15T15:44:29.443Z,4.47
2018-06-15T15:46:57.084Z,4.63
2018-06-15T15:49:24.635Z,4.70
2018-06-15T15:51:52.258Z,4.87
2018-06-15T15:54:19.826Z,5.30
2018-06-15T15:56:47.387Z,5.03
2018-06-15T15:59:15.035Z,4.63
2018-06-15T16:01:42.624Z,5.07
2018-06-15T16:04:10.226Z,5.27
2018-06-15T16:06:37.851Z,4.10
2018-06-15T16:09:06.873Z,4.57
2018-06-15T16:11:34.437Z,4.60
2018-06-15T16:14:02.018Z,4.47
2018-06-15T16:16:29.638Z,4.57
2018-06-15T16:18:57.253Z,4.70
2018-06-15T16:21:24.811Z,4.57
2018-06-15T16:23:52.445Z,4.93
2018-06-15T16:26:20.028Z,4.20
2018-06-15T16:28:47.683Z,4.47
2018-06-15T16:31:15.304Z,4.43
2018-06-15T16:33:42.901Z,4.50
2018-06-15T16:36:10.638Z,4.43
2018-06-15T16:38:38.337Z,4.27
2018-06-15T16:41:06.392Z,5.27
2018-06-15T16:43:34.117Z,4.37
2018-06-15T16:46:02.244Z,4.23
2018-06-15T16:48:29.891Z,4.60
2018-06-15T16:50:57.616Z,5.03
2018-06-15T16:53:25.196Z,4.50
2018-06-15T16:55:52.905Z,4.40
2018-06-15T16:58:20.713Z,5.40
2018-06-15T17:00:48.297Z,4.40
2018-06-15T17:03:15.935Z,4.27
2018-06-15T17:05:43.555Z,5.00
2018-06-15T17:08:11.185Z,4.03
2018-06-15T17:10:40.056Z,4.90
2018-06-15T17:13:08.020Z,4.20
2018-06-15T17:15:35.647Z,4.10
2018-06-15T17:18:03.245Z,4.20
2018-06-15T17:20:30.850Z,4.97
2018-06-15T17:22:58.417Z,4.37
2018-06-15T17:25:25.987Z,4.33
2018-06-15T17:27:53.627Z,4.60
2018-06-15T17:30:21.197Z,4.97
2018-06-15T17:32:49.024Z,4.27
2018-06-15T17:35:16.584Z,4.40
2018-06-15T17:37:44.188Z,5.20
2018-06-15T17:40:11.763Z,5.17
2018-06-15T17:42:39.323Z,5.57
2018-06-15T17:45:07.014Z,5.23
2018-06-15T17:47:34.613Z,5.03
2018-06-15T17:50:02.312Z,4.60
2018-06-15T17:52:30.200Z,4.73
2018-06-15T17:54:57.775Z,4.47
2018-06-15T17:57:25.326Z,5.30
2018-06-15T17:59:52.932Z,5.10
2018-06-15T18:02:20.541Z,4.63
2018-06-15T18:04:48.155Z,4.73
2018-06-15T18:07:15.720Z,4.50
2018-06-15T18:09:43.369Z,5.30
2018-06-15T18:12:19.930Z,5.13
2018-06-15T18:14:47.527Z,5.40
2018-06-15T18:17:15.182Z,4.80
2018-06-15T18:19:42.741Z,5.00
2018-06-15T18:22:10.365Z,5.00
2018-06-15T18:24:37.926Z,4.77
2018-06-15T18:27:05.522Z,5.47
2018-06-15T18:29:33.118Z,4.50
2018-06-15T18:32:00.677Z,4.80
2018-06-15T18:34:28.309Z,4.97
2018-06-15T18:36:55.934Z,5.83
2018-06-15T18:39:23.505Z,5.37
2018-06-15T18:41:51.103Z,6.37
2018-06-15T18:44:18.719Z,5.93
2018-06-15T18:46:46.320Z,6.03
2018-06-15T18:49:13.910Z,5.33
2018-06-15T18:51:41.525Z,5.83
2018-06-15T18:54:09.131Z,6.10
2018-06-15T18:56:36.703Z,5.50
2018-06-15T18:59:04.312Z,6.20
2018-06-15T19:01:31.927Z,5.33
2018-06-15T19:03:59.511Z,5.80
2018-06-15T19:06:27.137Z,6.10
2018-06-15T19:08:54.752Z,6.03
2018-06-15T19:11:22.385Z,6.47
2018-06-15T19:13:49.995Z,5.90
2018-06-15T19:16:17.568Z,6.90
2018-06-15T19:18:45.135Z,5.60
2018-06-15T19:21:12.713Z,6.13
2018-06-15T19:23:40.272Z,5.83
2018-06-15T19:26:07.859Z,6.13
2018-06-15T19:28:35.456Z,6.30
2018-06-15T19:31:03.061Z,6.20
2018-06-15T19:33:30.675Z,6.40
2018-06-15T19:35:58.306Z,5.90
2018-06-15T19:38:25.889Z,6.00
2018-06-15T19:40:53.535Z,6.30
2018-06-15T19:43:21.125Z,6.17
2018-06-15T19:45:48.689Z,5.60
2018-06-15T19:48:16.244Z,5.77
2018-06-15T19:50:43.829Z,6.20
2018-06-15T19:53:11.441Z,5.97
2018-06-15T19:55:39.113Z,6.40
2018-06-15T19:58:06.723Z,6.07
2018-06-15T20:00:36.418Z,6.20
2018-06-15T20:03:04.202Z,6.43
2018-06-15T20:05:31.793Z,6.30
2018-06-15T20:07:59.876Z,5.83
2018-06-15T20:10:27.495Z,6.23
2018-06-15T20:12:55.364Z,5.80
2018-06-15T20:15:22.949Z,6.37
2018-06-15T20:17:50.582Z,5.97
2018-06-15T20:20:18.173Z,5.83
2018-06-15T20:22:45.760Z,6.20
2018-06-15T20:25:13.367Z,7.03
2018-06-15T20:27:40.941Z,5.93
2018-06-15T20:30:08.686Z,6.47
2018-06-15T20:32:36.301Z,6.30
2018-06-15T20:35:03.988Z,5.63
2018-06-15T20:37:31.580Z,6.20
2018-06-15T20:39:59.200Z,5.50
2018-06-15T20:42:26.769Z,6.43
2018-06-15T20:44:54.381Z,6.57
2018-06-15T20:47:21.998Z,6.60
2018-06-15T20:49:49.621Z,7.10
2018-06-15T20:52:17.214Z,7.00
2018-06-15T20:54:44.830Z,6.70
2018-06-15T20:57:12.411Z,6.50
2018-06-15T20:59:40.142Z,6.07
2018-06-15T21:02:07.718Z,5.70
2018-06-15T21:04:35.323Z,5.93
2018-06-15T21:07:02.949Z,7.67
2018-06-15T21:09:30.577Z,6.57
2018-06-15T21:11:58.220Z,6.20
2018-06-15T21:14:25.839Z,6.80
2018-06-15T21:16:53.465Z,6.97
2018-06-15T21:19:21.040Z,6.07
2018-06-15T21:21:48.633Z,6.83
2018-06-15T21:24:16.200Z,7.33
2018-06-15T21:26:43.781Z,6.40
2018-06-15T21:29:11.400Z,6.93
2018-06-15T21:31:39.025Z,7.30
2018-06-15T21:34:06.606Z,6.27
2018-06-15T21:36:34.226Z,7.03
2018-06-15T21:39:01.819Z,7.10
2018-06-15T21:41:29.368Z,6.47
2018-06-15T21:43:56.937Z,7.10
2018-06-15T21:46:24.510Z,6.40
2018-06-15T21:48:52.099Z,7.23
2018-06-15T21:51:19.674Z,7.10
2018-06-15T21:53:47.265Z,7.10
2018-06-15T21:56:14.869Z,6.73
2018-06-15T21:58:42.464Z,6.37
2018-06-15T22:01:10.066Z,7.17
2018-06-15T22:03:37.644Z,6.70
2018-06-15T22:06:05.226Z,6.60
2018-06-15T22:08:32.796Z,6.60
2018-06-15T22:11:00.400Z,7.37
2018-06-15T22:13:28.005Z,6.23
2018-06-15T22:15:55.562Z,6.30
2018-06-15T22:18:23.134Z,7.33
2018-06-15T22:20:50.810Z,6.53
2018-06-15T22:23:18.384Z,7.07
2018-06-15T22:25:46.029Z,8.40
2018-06-15T22:28:13.602Z,7.17
2018-06-15T22:30:41.161Z,7.43
2018-06-15T22:33:08.718Z,6.80
2018-06-15T22:35:36.297Z,6.67
2018-06-15T22:38:03.889Z,6.60
2018-06-15T22:40:31.435Z,7.00
2018-06-15T22:42:59.059Z,7.27
2018-06-15T22:45:26.631Z,6.90
2018-06-15T22:47:54.210Z,6.73
2018-06-15T22:50:21.809Z,7.10
2018-06-15T22:52:49.372Z,7.03
2018-06-15T22:55:16.952Z,7.53
2018-06-15T22:57:44.516Z,7.20
2018-06-15T23:00:14.355Z,7.03
2018-06-15T23:02:41.922Z,7.67
2018-06-15T23:05:09.501Z,7.00
2018-06-15T23:07:37.075Z,6.93
2018-06-15T23:10:04.708Z,7.43
2018-06-15T23:12:32.263Z,6.90
2018-06-15T23:14:59.827Z,7.50
2018-06-15T23:17:27.396Z,6.77
2018-06-15T23:19:54.964Z,8.00
2018-06-15T23:22:22.532Z,6.70
2018-06-15T23:24:50.124Z,7.07
2018-06-15T23:27:17.721Z,6.60
2018-06-15T23:29:45.360Z,6.53
2018-06-15T23:32:12.927Z,6.50
2018-06-15T23:34:40.478Z,6.47
2018-06-15T23:37:08.048Z,7.37
2018-06-15T23:39:35.615Z,8.00
2018-06-15T23:42:03.201Z,6.87
2018-06-15T23:44:30.787Z,7.23
2018-06-15T23:46:58.383Z,7.73
2018-06-15T23:49:25.929Z,6.63
2018-06-15T23:51:53.521Z,7.77
2018-06-15T23:54:21.058Z,6.60
2018-06-15T23:56:48.628Z,7.23
2018-06-15T23:59:16.228Z,7.10
